sensor_id;sensor_type;location;lat;lon;timestamp;temperature;humidity
46766;DHT22;32527;51.986;5.842;2022-08-21T00:01:37;15.40;99.90
46766;DHT22;32527;51.986;5.842;2022-08-21T00:04:07;15.40;99.90
46766;DHT22;32527;51.986;5.842;2022-08-21T00:06:34;16.70;99.90
46766;DHT22;32527;51.986;5.842;2022-08-21T00:09:01;15.40;99.90
46766;DHT22;32527;51.986;5.842;2022-08-21T00:11:27;15.40;99.90
46766;DHT22;32527;51.986;5.842;2022-08-21T00:13:53;15.40;99.90
46766;DHT22;32527;51.986;5.842;2022-08-21T00:16:19;15.40;99.90
46766;DHT22;32527;51.986;5.842;2022-08-21T00:18:45;15.30;99.90
46766;DHT22;32527;51.986;5.842;2022-08-21T00:21:12;15.30;99.90
46766;DHT22;32527;51.986;5.842;2022-08-21T00:23:39;15.30;99.90
46766;DHT22;32527;51.986;5.842;2022-08-21T00:26:05;15.40;99.90
46766;DHT22;32527;51.986;5.842;2022-08-21T00:28:31;15.20;99.90
46766;DHT22;32527;51.986;5.842;2022-08-21T00:30:57;15.20;99.90
46766;DHT22;32527;51.986;5.842;2022-08-21T00:33:24;15.20;99.90
46766;DHT22;32527;51.986;5.842;2022-08-21T00:35:50;15.10;99.90
46766;DHT22;32527;51.986;5.842;2022-08-21T00:38:16;15.20;99.90
46766;DHT22;32527;51.986;5.842;2022-08-21T00:40:52;15.10;99.90
46766;DHT22;32527;51.986;5.842;2022-08-21T00:43:22;15.40;99.90
46766;DHT22;32527;51.986;5.842;2022-08-21T00:45:48;15.10;99.90
46766;DHT22;32527;51.986;5.842;2022-08-21T00:48:14;15.10;99.90
46766;DHT22;32527;51.986;5.842;2022-08-21T00:50:46;15.50;99.90
46766;DHT22;32527;51.986;5.842;2022-08-21T00:53:15;15.00;99.90
46766;DHT22;32527;51.986;5.842;2022-08-21T00:55:41;15.00;99.90
46766;DHT22;32527;51.986;5.842;2022-08-21T00:58:09;15.00;99.90
46766;DHT22;32527;51.986;5.842;2022-08-21T01:00:39;15.00;99.90
46766;DHT22;32527;51.986;5.842;2022-08-21T01:03:10;15.00;99.90
46766;DHT22;32527;51.986;5.842;2022-08-21T01:05:36;15.20;99.90
46766;DHT22;32527;51.986;5.842;2022-08-21T01:08:03;14.90;99.90
46766;DHT22;32527;51.986;5.842;2022-08-21T01:10:29;15.00;99.90
46766;DHT22;32527;51.986;5.842;2022-08-21T01:12:56;14.90;99.90
46766;DHT22;32527;51.986;5.842;2022-08-21T01:15:29;14.90;99.90
46766;DHT22;32527;51.986;5.842;2022-08-21T01:17:56;14.90;99.90
46766;DHT22;32527;51.986;5.842;2022-08-21T01:22:47;14.90;99.90
46766;DHT22;32527;51.986;5.842;2022-08-21T01:25:15;14.90;99.90
46766;DHT22;32527;51.986;5.842;2022-08-21T01:27:41;14.80;99.90
46766;DHT22;32527;51.986;5.842;2022-08-21T01:30:12;15.30;99.90
46766;DHT22;32527;51.986;5.842;2022-08-21T01:32:38;14.90;99.90
46766;DHT22;32527;51.986;5.842;2022-08-21T01:35:04;14.90;99.90
46766;DHT22;32527;51.986;5.842;2022-08-21T01:37:31;14.90;99.90
46766;DHT22;32527;51.986;5.842;2022-08-21T01:39:56;14.90;99.90
46766;DHT22;32527;51.986;5.842;2022-08-21T01:42:22;14.90;99.90
46766;DHT22;32527;51.986;5.842;2022-08-21T01:44:48;14.80;99.90
46766;DHT22;32527;51.986;5.842;2022-08-21T01:47:15;14.90;99.90
46766;DHT22;32527;51.986;5.842;2022-08-21T01:49:42;14.80;99.90
46766;DHT22;32527;51.986;5.842;2022-08-21T01:52:08;14.90;99.90
46766;DHT22;32527;51.986;5.842;2022-08-21T01:54:35;14.80;99.90
46766;DHT22;32527;51.986;5.842;2022-08-21T01:57:01;14.80;99.90
46766;DHT22;32527;51.986;5.842;2022-08-21T01:59:27;14.70;99.90
46766;DHT22;32527;51.986;5.842;2022-08-21T02:01:53;14.70;99.90
46766;DHT22;32527;51.986;5.842;2022-08-21T02:04:20;14.70;99.90
46766;DHT22;32527;51.986;5.842;2022-08-21T02:06:46;14.70;99.90
46766;DHT22;32527;51.986;5.842;2022-08-21T02:09:13;14.70;99.90
46766;DHT22;32527;51.986;5.842;2022-08-21T02:11:40;14.70;99.90
46766;DHT22;32527;51.986;5.842;2022-08-21T02:14:11;14.70;99.90
46766;DHT22;32527;51.986;5.842;2022-08-21T02:16:38;14.60;99.90
46766;DHT22;32527;51.986;5.842;2022-08-21T02:19:04;14.60;99.90
46766;DHT22;32527;51.986;5.842;2022-08-21T02:21:30;14.60;99.90
46766;DHT22;32527;51.986;5.842;2022-08-21T02:23:56;14.60;99.90
46766;DHT22;32527;51.986;5.842;2022-08-21T02:26:22;14.60;99.90
46766;DHT22;32527;51.986;5.842;2022-08-21T02:28:48;14.60;99.90
46766;DHT22;32527;51.986;5.842;2022-08-21T02:31:13;14.60;99.90
46766;DHT22;32527;51.986;5.842;2022-08-21T02:33:40;14.50;99.90
46766;DHT22;32527;51.986;5.842;2022-08-21T02:36:07;14.40;99.90
46766;DHT22;32527;51.986;5.842;2022-08-21T02:38:34;14.50;99.90
46766;DHT22;32527;51.986;5.842;2022-08-21T02:41:04;14.50;99.90
46766;DHT22;32527;51.986;5.842;2022-08-21T02:43:30;14.40;99.90
46766;DHT22;32527;51.986;5.842;2022-08-21T02:45:57;14.40;99.90
46766;DHT22;32527;51.986;5.842;2022-08-21T02:48:27;14.40;99.90
46766;DHT22;32527;51.986;5.842;2022-08-21T02:51:03;14.40;99.90
46766;DHT22;32527;51.986;5.842;2022-08-21T02:53:30;14.40;99.90
46766;DHT22;32527;51.986;5.842;2022-08-21T02:55:59;14.30;99.90
46766;DHT22;32527;51.986;5.842;2022-08-21T02:58:29;14.30;99.90
46766;DHT22;32527;51.986;5.842;2022-08-21T03:00:56;14.30;99.90
46766;DHT22;32527;51.986;5.842;2022-08-21T03:03:24;14.30;99.90
46766;DHT22;32527;51.986;5.842;2022-08-21T03:05:50;14.30;99.90
46766;DHT22;32527;51.986;5.842;2022-08-21T03:08:17;14.30;99.90
46766;DHT22;32527;51.986;5.842;2022-08-21T03:10:46;14.20;99.90
46766;DHT22;32527;51.986;5.842;2022-08-21T03:13:14;14.30;99.90
46766;DHT22;32527;51.986;5.842;2022-08-21T03:15:40;14.20;99.90
46766;DHT22;32527;51.986;5.842;2022-08-21T03:18:07;14.30;99.90
46766;DHT22;32527;51.986;5.842;2022-08-21T03:20:34;14.30;99.90
46766;DHT22;32527;51.986;5.842;2022-08-21T03:23:01;14.90;99.90
46766;DHT22;32527;51.986;5.842;2022-08-21T03:25:29;14.20;99.90
46766;DHT22;32527;51.986;5.842;2022-08-21T03:27:59;14.20;99.90
46766;DHT22;32527;51.986;5.842;2022-08-21T03:30:25;14.10;99.90
46766;DHT22;32527;51.986;5.842;2022-08-21T03:32:51;14.20;99.90
46766;DHT22;32527;51.986;5.842;2022-08-21T03:35:17;14.20;99.90
46766;DHT22;32527;51.986;5.842;2022-08-21T03:37:43;14.20;99.90
46766;DHT22;32527;51.986;5.842;2022-08-21T03:40:11;14.20;99.90
46766;DHT22;32527;51.986;5.842;2022-08-21T03:42:37;14.20;99.90
46766;DHT22;32527;51.986;5.842;2022-08-21T03:45:04;14.20;99.90
46766;DHT22;32527;51.986;5.842;2022-08-21T03:47:30;14.10;99.90
46766;DHT22;32527;51.986;5.842;2022-08-21T03:49:55;14.10;99.90
46766;DHT22;32527;51.986;5.842;2022-08-21T03:52:21;14.10;99.90
46766;DHT22;32527;51.986;5.842;2022-08-21T03:54:47;14.10;99.90
46766;DHT22;32527;51.986;5.842;2022-08-21T03:57:14;14.50;99.90
46766;DHT22;32527;51.986;5.842;2022-08-21T03:59:39;14.00;99.90
46766;DHT22;32527;51.986;5.842;2022-08-21T04:02:06;14.00;99.90
46766;DHT22;32527;51.986;5.842;2022-08-21T04:04:33;14.00;99.90
46766;DHT22;32527;51.986;5.842;2022-08-21T04:06:59;14.00;99.90
46766;DHT22;32527;51.986;5.842;2022-08-21T04:09:26;14.00;99.90
46766;DHT22;32527;51.986;5.842;2022-08-21T04:11:52;14.00;99.90
46766;DHT22;32527;51.986;5.842;2022-08-21T04:14:18;14.00;99.90
46766;DHT22;32527;51.986;5.842;2022-08-21T04:16:44;14.00;99.90
46766;DHT22;32527;51.986;5.842;2022-08-21T04:19:11;14.00;99.90
46766;DHT22;32527;51.986;5.842;2022-08-21T04:21:39;14.00;99.90
46766;DHT22;32527;51.986;5.842;2022-08-21T04:24:05;14.00;99.90
46766;DHT22;32527;51.986;5.842;2022-08-21T04:26:33;14.00;99.90
46766;DHT22;32527;51.986;5.842;2022-08-21T04:29:00;14.00;99.90
46766;DHT22;32527;51.986;5.842;2022-08-21T04:31:26;14.00;99.90
46766;DHT22;32527;51.986;5.842;2022-08-21T04:33:51;14.00;99.90
46766;DHT22;32527;51.986;5.842;2022-08-21T04:36:17;13.90;99.90
46766;DHT22;32527;51.986;5.842;2022-08-21T04:38:43;13.90;99.90
46766;DHT22;32527;51.986;5.842;2022-08-21T04:41:09;13.90;99.90
46766;DHT22;32527;51.986;5.842;2022-08-21T04:43:35;13.90;99.90
46766;DHT22;32527;51.986;5.842;2022-08-21T04:46:01;13.90;99.90
46766;DHT22;32527;51.986;5.842;2022-08-21T04:48:27;13.90;99.90
46766;DHT22;32527;51.986;5.842;2022-08-21T04:53:30;13.90;99.90
46766;DHT22;32527;51.986;5.842;2022-08-21T04:56:01;13.80;99.90
46766;DHT22;32527;51.986;5.842;2022-08-21T04:58:28;13.90;99.90
46766;DHT22;32527;51.986;5.842;2022-08-21T05:00:56;13.90;99.90
46766;DHT22;32527;51.986;5.842;2022-08-21T05:03:23;13.90;99.90
46766;DHT22;32527;51.986;5.842;2022-08-21T05:05:49;13.90;99.90
46766;DHT22;32527;51.986;5.842;2022-08-21T05:08:17;14.00;99.90
46766;DHT22;32527;51.986;5.842;2022-08-21T05:10:44;14.00;99.90
46766;DHT22;32527;51.986;5.842;2022-08-21T05:13:11;14.00;99.90
46766;DHT22;32527;51.986;5.842;2022-08-21T05:15:39;14.10;99.90
46766;DHT22;32527;51.986;5.842;2022-08-21T05:18:04;14.10;99.90
46766;DHT22;32527;51.986;5.842;2022-08-21T05:20:32;14.20;99.90
46766;DHT22;32527;51.986;5.842;2022-08-21T05:23:00;14.20;99.90
46766;DHT22;32527;51.986;5.842;2022-08-21T05:25:26;14.30;99.90
46766;DHT22;32527;51.986;5.842;2022-08-21T05:27:52;14.30;99.90
46766;DHT22;32527;51.986;5.842;2022-08-21T05:30:19;14.70;99.90
46766;DHT22;32527;51.986;5.842;2022-08-21T05:32:45;14.40;99.90
46766;DHT22;32527;51.986;5.842;2022-08-21T05:35:11;14.50;99.90
46766;DHT22;32527;51.986;5.842;2022-08-21T05:37:36;15.40;99.90
46766;DHT22;32527;51.986;5.842;2022-08-21T05:40:03;14.70;99.90
46766;DHT22;32527;51.986;5.842;2022-08-21T05:42:29;14.70;99.90
46766;DHT22;32527;51.986;5.842;2022-08-21T05:44:55;14.80;99.90
46766;DHT22;32527;51.986;5.842;2022-08-21T05:47:21;14.90;99.90
46766;DHT22;32527;51.986;5.842;2022-08-21T05:49:47;15.00;99.90
46766;DHT22;32527;51.986;5.842;2022-08-21T05:52:18;15.10;99.90
46766;DHT22;32527;51.986;5.842;2022-08-21T05:54:44;15.20;99.90
46766;DHT22;32527;51.986;5.842;2022-08-21T05:57:10;15.30;99.90
46766;DHT22;32527;51.986;5.842;2022-08-21T05:59:35;15.40;99.90
46766;DHT22;32527;51.986;5.842;2022-08-21T06:02:01;15.40;99.90
46766;DHT22;32527;51.986;5.842;2022-08-21T06:04:27;15.50;99.90
46766;DHT22;32527;51.986;5.842;2022-08-21T06:06:53;15.60;99.90
46766;DHT22;32527;51.986;5.842;2022-08-21T06:09:18;15.70;99.90
46766;DHT22;32527;51.986;5.842;2022-08-21T06:11:44;15.90;99.90
46766;DHT22;32527;51.986;5.842;2022-08-21T06:14:09;15.90;99.90
46766;DHT22;32527;51.986;5.842;2022-08-21T06:16:36;16.10;99.90
46766;DHT22;32527;51.986;5.842;2022-08-21T06:19:02;16.20;99.90
46766;DHT22;32527;51.986;5.842;2022-08-21T06:21:28;16.20;99.90
46766;DHT22;32527;51.986;5.842;2022-08-21T06:23:53;16.30;99.90
46766;DHT22;32527;51.986;5.842;2022-08-21T06:26:19;16.40;99.90
46766;DHT22;32527;51.986;5.842;2022-08-21T06:28:46;16.50;99.90
46766;DHT22;32527;51.986;5.842;2022-08-21T06:31:18;16.70;99.90
46766;DHT22;32527;51.986;5.842;2022-08-21T06:33:43;16.80;99.90
46766;DHT22;32527;51.986;5.842;2022-08-21T06:36:09;16.90;99.90
46766;DHT22;32527;51.986;5.842;2022-08-21T06:38:36;17.20;99.90
46766;DHT22;32527;51.986;5.842;2022-08-21T06:41:02;17.50;99.90
46766;DHT22;32527;51.986;5.842;2022-08-21T06:43:28;17.80;99.90
46766;DHT22;32527;51.986;5.842;2022-08-21T06:45:54;18.20;99.90
46766;DHT22;32527;51.986;5.842;2022-08-21T06:48:20;18.80;99.90
46766;DHT22;32527;51.986;5.842;2022-08-21T06:50:47;19.10;99.90
46766;DHT22;32527;51.986;5.842;2022-08-21T06:53:14;19.40;99.90
46766;DHT22;32527;51.986;5.842;2022-08-21T06:55:41;19.60;99.90
46766;DHT22;32527;51.986;5.842;2022-08-21T06:58:08;20.10;99.90
46766;DHT22;32527;51.986;5.842;2022-08-21T07:00:35;20.20;99.90
46766;DHT22;32527;51.986;5.842;2022-08-21T07:03:03;20.70;99.90
46766;DHT22;32527;51.986;5.842;2022-08-21T07:05:29;21.60;99.90
46766;DHT22;32527;51.986;5.842;2022-08-21T07:07:55;22.20;99.90
46766;DHT22;32527;51.986;5.842;2022-08-21T07:10:22;22.20;99.90
46766;DHT22;32527;51.986;5.842;2022-08-21T07:12:49;22.20;99.90
46766;DHT22;32527;51.986;5.842;2022-08-21T07:15:15;23.30;99.90
46766;DHT22;32527;51.986;5.842;2022-08-21T07:17:41;22.30;99.90
46766;DHT22;32527;51.986;5.842;2022-08-21T07:20:07;22.50;99.90
46766;DHT22;32527;51.986;5.842;2022-08-21T07:22:33;22.80;99.90
46766;DHT22;32527;51.986;5.842;2022-08-21T07:25:00;22.50;99.90
46766;DHT22;32527;51.986;5.842;2022-08-21T07:27:26;22.50;99.90
46766;DHT22;32527;51.986;5.842;2022-08-21T07:29:52;22.90;99.90
46766;DHT22;32527;51.986;5.842;2022-08-21T07:32:17;24.00;99.90
46766;DHT22;32527;51.986;5.842;2022-08-21T07:34:43;25.30;99.10
46766;DHT22;32527;51.986;5.842;2022-08-21T07:37:09;24.00;98.40
46766;DHT22;32527;51.986;5.842;2022-08-21T07:39:34;24.10;98.00
46766;DHT22;32527;51.986;5.842;2022-08-21T07:42:00;25.60;99.30
46766;DHT22;32527;51.986;5.842;2022-08-21T07:44:25;23.80;99.30
46766;DHT22;32527;51.986;5.842;2022-08-21T07:46:51;24.30;98.60
46766;DHT22;32527;51.986;5.842;2022-08-21T07:49:17;24.80;97.60
46766;DHT22;32527;51.986;5.842;2022-08-21T07:51:42;24.50;97.70
46766;DHT22;32527;51.986;5.842;2022-08-21T07:54:08;24.40;97.70
46766;DHT22;32527;51.986;5.842;2022-08-21T07:56:34;24.50;98.00
46766;DHT22;32527;51.986;5.842;2022-08-21T07:59:00;24.60;98.10
46766;DHT22;32527;51.986;5.842;2022-08-21T08:01:28;24.50;97.20
46766;DHT22;32527;51.986;5.842;2022-08-21T08:03:54;23.90;98.90
46766;DHT22;32527;51.986;5.842;2022-08-21T08:06:20;23.40;99.90
46766;DHT22;32527;51.986;5.842;2022-08-21T08:08:46;22.60;99.90
46766;DHT22;32527;51.986;5.842;2022-08-21T08:11:13;22.60;99.90
46766;DHT22;32527;51.986;5.842;2022-08-21T08:13:44;23.10;99.90
46766;DHT22;32527;51.986;5.842;2022-08-21T08:16:10;23.60;99.90
46766;DHT22;32527;51.986;5.842;2022-08-21T08:18:36;24.20;99.90
46766;DHT22;32527;51.986;5.842;2022-08-21T08:21:02;24.50;99.90
46766;DHT22;32527;51.986;5.842;2022-08-21T08:23:28;24.70;99.90
46766;DHT22;32527;51.986;5.842;2022-08-21T08:25:56;25.30;98.50
46766;DHT22;32527;51.986;5.842;2022-08-21T08:28:22;25.50;97.60
46766;DHT22;32527;51.986;5.842;2022-08-21T08:30:47;25.30;97.20
46766;DHT22;32527;51.986;5.842;2022-08-21T08:33:15;25.40;96.90
46766;DHT22;32527;51.986;5.842;2022-08-21T08:35:44;25.50;96.90
46766;DHT22;32527;51.986;5.842;2022-08-21T08:38:10;25.60;97.20
46766;DHT22;32527;51.986;5.842;2022-08-21T08:43:17;26.20;94.50
46766;DHT22;32527;51.986;5.842;2022-08-21T08:45:48;25.80;95.20
46766;DHT22;32527;51.986;5.842;2022-08-21T08:48:26;25.80;94.90
46766;DHT22;32527;51.986;5.842;2022-08-21T08:50:57;25.50;94.50
46766;DHT22;32527;51.986;5.842;2022-08-21T08:54:07;25.10;95.90
46766;DHT22;32527;51.986;5.842;2022-08-21T08:56:33;25.00;95.90
46766;DHT22;32527;51.986;5.842;2022-08-21T08:59:25;24.90;96.00
46766;DHT22;32527;51.986;5.842;2022-08-21T09:01:53;24.80;96.90
46766;DHT22;32527;51.986;5.842;2022-08-21T09:04:25;25.60;94.80
46766;DHT22;32527;51.986;5.842;2022-08-21T09:07:06;25.60;94.90
46766;DHT22;32527;51.986;5.842;2022-08-21T09:12:47;26.10;93.50
46766;DHT22;32527;51.986;5.842;2022-08-21T09:15:32;26.90;92.00
46766;DHT22;32527;51.986;5.842;2022-08-21T09:26:36;28.40;84.20
46766;DHT22;32527;51.986;5.842;2022-08-21T09:29:07;28.40;82.20
46766;DHT22;32527;51.986;5.842;2022-08-21T09:31:36;28.30;79.90
46766;DHT22;32527;51.986;5.842;2022-08-21T09:34:10;28.40;80.80
46766;DHT22;32527;51.986;5.842;2022-08-21T09:36:49;28.40;79.10
46766;DHT22;32527;51.986;5.842;2022-08-21T09:39:30;28.40;77.20
46766;DHT22;32527;51.986;5.842;2022-08-21T09:42:03;28.60;74.70
46766;DHT22;32527;51.986;5.842;2022-08-21T09:44:36;28.20;75.10
46766;DHT22;32527;51.986;5.842;2022-08-21T09:47:09;27.40;77.30
46766;DHT22;32527;51.986;5.842;2022-08-21T09:49:38;27.00;76.70
46766;DHT22;32527;51.986;5.842;2022-08-21T09:52:15;27.20;75.90
46766;DHT22;32527;51.986;5.842;2022-08-21T09:54:52;27.80;76.70
46766;DHT22;32527;51.986;5.842;2022-08-21T09:57:28;28.20;75.00
46766;DHT22;32527;51.986;5.842;2022-08-21T10:00:27;28.10;74.20
46766;DHT22;32527;51.986;5.842;2022-08-21T10:03:18;28.10;76.30
46766;DHT22;32527;51.986;5.842;2022-08-21T10:06:00;28.30;72.80
46766;DHT22;32527;51.986;5.842;2022-08-21T10:08:28;28.10;72.60
46766;DHT22;32527;51.986;5.842;2022-08-21T10:10:57;28.00;72.60
46766;DHT22;32527;51.986;5.842;2022-08-21T10:13:47;27.80;74.30
46766;DHT22;32527;51.986;5.842;2022-08-21T10:19:29;27.10;73.80
46766;DHT22;32527;51.986;5.842;2022-08-21T10:22:03;26.30;73.90
46766;DHT22;32527;51.986;5.842;2022-08-21T10:24:46;25.60;76.20
46766;DHT22;32527;51.986;5.842;2022-08-21T10:27:33;25.30;80.50
46766;DHT22;32527;51.986;5.842;2022-08-21T10:30:21;25.80;79.90
46766;DHT22;32527;51.986;5.842;2022-08-21T10:49:17;27.10;72.70
46766;DHT22;32527;51.986;5.842;2022-08-21T10:51:54;27.80;72.20
46766;DHT22;32527;51.986;5.842;2022-08-21T10:57:02;28.90;67.40
46766;DHT22;32527;51.986;5.842;2022-08-21T10:59:47;29.30;65.40
46766;DHT22;32527;51.986;5.842;2022-08-21T11:02:32;29.50;65.70
46766;DHT22;32527;51.986;5.842;2022-08-21T11:05:19;29.40;66.40
46766;DHT22;32527;51.986;5.842;2022-08-21T11:13:37;29.80;62.30
46766;DHT22;32527;51.986;5.842;2022-08-21T11:16:36;29.70;62.00
46766;DHT22;32527;51.986;5.842;2022-08-21T11:19:24;29.70;62.40
46766;DHT22;32527;51.986;5.842;2022-08-21T11:29:56;30.90;58.50
46766;DHT22;32527;51.986;5.842;2022-08-21T11:35:56;30.90;57.10
46766;DHT22;32527;51.986;5.842;2022-08-21T11:38:45;31.10;57.90
46766;DHT22;32527;51.986;5.842;2022-08-21T11:43:46;30.50;58.00
46766;DHT22;32527;51.986;5.842;2022-08-21T11:46:29;29.90;59.10
46766;DHT22;32527;51.986;5.842;2022-08-21T11:49:18;30.20;57.20
46766;DHT22;32527;51.986;5.842;2022-08-21T11:52:15;30.80;58.30
46766;DHT22;32527;51.986;5.842;2022-08-21T11:54:59;30.50;56.30
46766;DHT22;32527;51.986;5.842;2022-08-21T11:57:32;29.80;58.30
46766;DHT22;32527;51.986;5.842;2022-08-21T12:02:42;27.80;62.50
46766;DHT22;32527;51.986;5.842;2022-08-21T12:05:23;27.20;62.10
46766;DHT22;32527;51.986;5.842;2022-08-21T12:08:01;26.80;64.70
46766;DHT22;32527;51.986;5.842;2022-08-21T12:10:37;26.60;65.30
46766;DHT22;32527;51.986;5.842;2022-08-21T12:13:30;26.50;65.70
46766;DHT22;32527;51.986;5.842;2022-08-21T12:16:29;26.10;66.60
46766;DHT22;32527;51.986;5.842;2022-08-21T12:22:09;26.00;66.40
46766;DHT22;32527;51.986;5.842;2022-08-21T12:24:44;26.00;65.80
46766;DHT22;32527;51.986;5.842;2022-08-21T12:27:26;26.20;66.90
46766;DHT22;32527;51.986;5.842;2022-08-21T12:29:56;26.50;66.20
46766;DHT22;32527;51.986;5.842;2022-08-21T12:32:43;26.60;67.00
46766;DHT22;32527;51.986;5.842;2022-08-21T12:35:17;26.40;65.80
46766;DHT22;32527;51.986;5.842;2022-08-21T12:37:55;26.30;66.70
46766;DHT22;32527;51.986;5.842;2022-08-21T12:40:23;26.70;67.00
46766;DHT22;32527;51.986;5.842;2022-08-21T12:42:53;26.00;66.40
46766;DHT22;32527;51.986;5.842;2022-08-21T12:45:30;26.10;67.20
46766;DHT22;32527;51.986;5.842;2022-08-21T12:53:54;26.10;64.20
46766;DHT22;32527;51.986;5.842;2022-08-21T12:56:23;26.20;64.60
46766;DHT22;32527;51.986;5.842;2022-08-21T12:58:56;26.30;65.10
46766;DHT22;32527;51.986;5.842;2022-08-21T13:01:46;26.20;65.20
46766;DHT22;32527;51.986;5.842;2022-08-21T13:04:19;26.00;66.20
46766;DHT22;32527;51.986;5.842;2022-08-21T13:06:48;25.60;65.90
46766;DHT22;32527;51.986;5.842;2022-08-21T13:09:18;25.60;68.20
46766;DHT22;32527;51.986;5.842;2022-08-21T13:11:47;25.80;66.50
46766;DHT22;32527;51.986;5.842;2022-08-21T13:14:37;26.00;64.50
46766;DHT22;32527;51.986;5.842;2022-08-21T13:17:05;26.20;64.80
46766;DHT22;32527;51.986;5.842;2022-08-21T13:19:31;26.20;64.30
46766;DHT22;32527;51.986;5.842;2022-08-21T13:21:58;26.30;63.60
46766;DHT22;32527;51.986;5.842;2022-08-21T13:24:27;26.10;64.10
46766;DHT22;32527;51.986;5.842;2022-08-21T13:26:53;25.60;65.50
46766;DHT22;32527;51.986;5.842;2022-08-21T13:29:21;25.80;65.90
46766;DHT22;32527;51.986;5.842;2022-08-21T13:31:51;25.60;66.60
46766;DHT22;32527;51.986;5.842;2022-08-21T13:34:20;25.60;65.40
46766;DHT22;32527;51.986;5.842;2022-08-21T13:36:47;25.70;64.50
46766;DHT22;32527;51.986;5.842;2022-08-21T13:39:16;25.70;64.70
46766;DHT22;32527;51.986;5.842;2022-08-21T13:41:45;25.60;64.20
46766;DHT22;32527;51.986;5.842;2022-08-21T13:46:44;25.60;63.60
46766;DHT22;32527;51.986;5.842;2022-08-21T13:49:10;25.90;64.90
46766;DHT22;32527;51.986;5.842;2022-08-21T13:51:39;25.60;64.70
46766;DHT22;32527;51.986;5.842;2022-08-21T13:54:23;25.90;64.30
46766;DHT22;32527;51.986;5.842;2022-08-21T13:56:48;25.30;64.10
46766;DHT22;32527;51.986;5.842;2022-08-21T14:02:16;25.20;64.60
46766;DHT22;32527;51.986;5.842;2022-08-21T14:04:57;25.20;64.30
46766;DHT22;32527;51.986;5.842;2022-08-21T14:07:30;24.60;63.90
46766;DHT22;32527;51.986;5.842;2022-08-21T14:10:04;25.20;65.10
46766;DHT22;32527;51.986;5.842;2022-08-21T14:12:54;25.20;65.70
46766;DHT22;32527;51.986;5.842;2022-08-21T14:15:26;25.20;65.00
46766;DHT22;32527;51.986;5.842;2022-08-21T14:17:54;25.20;64.20
46766;DHT22;32527;51.986;5.842;2022-08-21T14:20:46;25.20;63.60
46766;DHT22;32527;51.986;5.842;2022-08-21T14:23:26;25.10;62.90
46766;DHT22;32527;51.986;5.842;2022-08-21T14:25:52;25.00;64.50
46766;DHT22;32527;51.986;5.842;2022-08-21T14:28:35;25.10;63.30
46766;DHT22;32527;51.986;5.842;2022-08-21T14:31:17;25.10;64.00
46766;DHT22;32527;51.986;5.842;2022-08-21T14:33:43;25.20;65.70
46766;DHT22;32527;51.986;5.842;2022-08-21T14:36:09;25.10;65.30
46766;DHT22;32527;51.986;5.842;2022-08-21T14:38:37;25.00;64.50
46766;DHT22;32527;51.986;5.842;2022-08-21T14:41:24;24.90;66.60
46766;DHT22;32527;51.986;5.842;2022-08-21T14:43:53;24.90;66.10
46766;DHT22;32527;51.986;5.842;2022-08-21T14:46:28;24.90;67.30
46766;DHT22;32527;51.986;5.842;2022-08-21T14:48:55;24.90;66.20
46766;DHT22;32527;51.986;5.842;2022-08-21T14:51:20;25.10;65.80
46766;DHT22;32527;51.986;5.842;2022-08-21T14:53:46;25.10;66.00
46766;DHT22;32527;51.986;5.842;2022-08-21T14:56:13;25.20;66.00
46766;DHT22;32527;51.986;5.842;2022-08-21T14:58:41;25.30;64.70
46766;DHT22;32527;51.986;5.842;2022-08-21T15:01:10;25.20;63.90
46766;DHT22;32527;51.986;5.842;2022-08-21T15:03:36;25.10;65.00
46766;DHT22;32527;51.986;5.842;2022-08-21T15:06:03;25.10;64.50
46766;DHT22;32527;51.986;5.842;2022-08-21T15:08:29;25.10;64.60
46766;DHT22;32527;51.986;5.842;2022-08-21T15:10:55;25.00;64.80
46766;DHT22;32527;51.986;5.842;2022-08-21T15:13:21;25.10;65.10
46766;DHT22;32527;51.986;5.842;2022-08-21T15:15:49;25.10;65.50
46766;DHT22;32527;51.986;5.842;2022-08-21T15:18:16;25.10;64.70
46766;DHT22;32527;51.986;5.842;2022-08-21T15:20:41;25.20;65.90
46766;DHT22;32527;51.986;5.842;2022-08-21T15:23:08;25.10;65.20
46766;DHT22;32527;51.986;5.842;2022-08-21T15:25:35;24.90;64.80
46766;DHT22;32527;51.986;5.842;2022-08-21T15:28:02;25.10;65.10
46766;DHT22;32527;51.986;5.842;2022-08-21T15:30:38;25.00;65.10
46766;DHT22;32527;51.986;5.842;2022-08-21T15:33:04;24.90;65.60
46766;DHT22;32527;51.986;5.842;2022-08-21T15:35:30;24.80;65.10
46766;DHT22;32527;51.986;5.842;2022-08-21T15:37:56;24.80;65.60
46766;DHT22;32527;51.986;5.842;2022-08-21T15:40:22;24.80;65.90
46766;DHT22;32527;51.986;5.842;2022-08-21T15:42:48;24.70;66.00
46766;DHT22;32527;51.986;5.842;2022-08-21T15:45:14;24.60;67.40
46766;DHT22;32527;51.986;5.842;2022-08-21T15:47:43;24.50;67.70
46766;DHT22;32527;51.986;5.842;2022-08-21T15:50:10;24.40;68.30
46766;DHT22;32527;51.986;5.842;2022-08-21T15:52:36;24.40;67.70
46766;DHT22;32527;51.986;5.842;2022-08-21T15:55:04;24.40;68.30
46766;DHT22;32527;51.986;5.842;2022-08-21T15:57:30;24.40;69.60
46766;DHT22;32527;51.986;5.842;2022-08-21T16:00:18;24.20;69.10
46766;DHT22;32527;51.986;5.842;2022-08-21T16:02:47;24.30;69.80
46766;DHT22;32527;51.986;5.842;2022-08-21T16:05:14;24.20;70.00
46766;DHT22;32527;51.986;5.842;2022-08-21T16:07:45;24.20;69.80
46766;DHT22;32527;51.986;5.842;2022-08-21T16:10:12;24.10;69.40
46766;DHT22;32527;51.986;5.842;2022-08-21T16:12:42;24.10;69.50
46766;DHT22;32527;51.986;5.842;2022-08-21T16:15:11;24.00;70.30
46766;DHT22;32527;51.986;5.842;2022-08-21T16:17:39;24.00;70.80
46766;DHT22;32527;51.986;5.842;2022-08-21T16:20:11;23.90;71.10
46766;DHT22;32527;51.986;5.842;2022-08-21T16:22:38;24.00;70.10
46766;DHT22;32527;51.986;5.842;2022-08-21T16:25:05;23.90;69.00
46766;DHT22;32527;51.986;5.842;2022-08-21T16:27:32;23.80;69.30
46766;DHT22;32527;51.986;5.842;2022-08-21T16:29:59;24.40;69.20
46766;DHT22;32527;51.986;5.842;2022-08-21T16:32:25;23.70;70.40
46766;DHT22;32527;51.986;5.842;2022-08-21T16:34:50;23.70;69.90
46766;DHT22;32527;51.986;5.842;2022-08-21T16:37:17;23.70;69.90
46766;DHT22;32527;51.986;5.842;2022-08-21T16:39:43;23.60;70.50
46766;DHT22;32527;51.986;5.842;2022-08-21T16:42:14;23.50;72.50
46766;DHT22;32527;51.986;5.842;2022-08-21T16:44:42;23.30;72.10
46766;DHT22;32527;51.986;5.842;2022-08-21T16:47:08;23.20;72.60
46766;DHT22;32527;51.986;5.842;2022-08-21T16:49:34;23.20;73.60
46766;DHT22;32527;51.986;5.842;2022-08-21T16:52:00;23.20;74.80
46766;DHT22;32527;51.986;5.842;2022-08-21T16:54:25;23.10;75.70
46766;DHT22;32527;51.986;5.842;2022-08-21T16:56:51;23.10;76.00
46766;DHT22;32527;51.986;5.842;2022-08-21T16:59:17;23.10;77.60
46766;DHT22;32527;51.986;5.842;2022-08-21T17:01:43;23.00;77.80
46766;DHT22;32527;51.986;5.842;2022-08-21T17:04:09;22.90;77.70